Durham, United Kingdom
Current Conditions -  °F | °C
As of 1:50 AM on Saturday 25 Oct 2014 (Local Time) from EGNT Reporting Station
Few Clouds Few Clouds  
Wind Chill:   Ceiling: Unl
Heat Index:   Visibility: 6mi
Dew Point:   Wind: 10mph
Humidity: 82%   Direction: 220°SW
Pressure: 29.8"   Gusts: NA
Location:  54.77°N, 1.58°W
Report Text: EGNT 250050Z 22009KT 9999 FEW035 09/06 Q1009
Loading
Personal Weather Stations






























Interactive Weather Map
Tropical Storm Tracking
New forecast layout! Learn more

10-Day Weather Forecast

Advertisements
Track Severe Weather on mobile